Time;durP1;ratioP1;P1;durP2;ratioP2;P2;SDS_P1;SDS_P2;PMS_P1;PMS_P2;Temp;Humidity;BMP_temperature;BMP_pressure;BME280_temperature;BME280_humidity;BME280_pressure;Samples;Min_cycle;Max_cycle;Signal;HPM_P1;HPM_P2
2019/07/02 00:01:13;;;;;;;3.2;1.6;;;;;;;33.99;24.96973;1005.718;;;;
2019/07/02 00:04:25;;;;;;;2.9;1.4;;;;;;;33.98;25.00586;1005.792;;;;
2019/07/02 00:07:36;;;;;;;3.2;1.4;;;;;;;33.98;25.01855;1005.847;;;;
2019/07/02 00:10:48;;;;;;;3.4;1.4;;;;;;;33.97;24.99316;1005.853;;;;
2019/07/02 00:14:00;;;;;;;3.8;1.5;;;;;;;33.97;25.04297;1005.792;;;;
2019/07/02 00:17:12;;;;;;;3;1.2;;;;;;;33.97;25.08008;1005.835;;;;
2019/07/02 00:20:23;;;;;;;3.6;1.4;;;;;;;33.96;25.0791;1005.808;;;;
2019/07/02 00:23:35;;;;;;;3.2;1.6;;;;;;;33.97;25.08008;1005.833;;;;
2019/07/02 00:26:46;;;;;;;2.8;1.3;;;;;;;33.97;25.12891;1005.775;;;;
2019/07/02 00:29:58;;;;;;;4.5;1.5;;;;;;;33.96;25.1416;1005.726;;;;
2019/07/02 00:33:10;;;;;;;3.3;1.5;;;;;;;33.96;25.12891;1005.748;;;;
2019/07/02 00:36:22;;;;;;;2.8;1.3;;;;;;;33.97;25.16602;1005.796;;;;
2019/07/02 00:39:33;;;;;;;2.5;1.3;;;;;;;33.96;25.17773;1005.811;;;;
2019/07/02 00:42:45;;;;;;;2.5;1.4;;;;;;;33.96;25.17773;1005.948;;;;
2019/07/02 00:45:58;;;;;;;2.7;1.3;;;;;;;33.96;25.17773;1005.907;;;;
2019/07/02 00:49:10;;;;;;;2.9;1.4;;;;;;;33.95;25.22754;1006.005;;;;
2019/07/02 00:52:22;;;;;;;2.9;1.4;;;;;;;33.95;25.23926;1006.037;;;;
2019/07/02 00:55:33;;;;;;;3.1;1.5;;;;;;;33.96;25.22754;1006.064;;;;
2019/07/02 00:58:45;;;;;;;6;1.5;;;;;;;33.95;25.25195;1006.106;;;;
2019/07/02 01:01:57;;;;;;;3.5;1.4;;;;;;;33.95;25.26367;1006.029;;;;
2019/07/02 01:05:09;;;;;;;2.9;1.6;;;;;;;33.94;25.23926;1005.971;;;;
2019/07/02 01:08:20;;;;;;;2.8;1.4;;;;;;;33.94;25.23926;1006.049;;;;
2019/07/02 01:11:32;;;;;;;3.8;1.5;;;;;;;33.94;25.18945;1006.128;;;;
2019/07/02 01:14:44;;;;;;;3.4;1.4;;;;;;;33.93;25.20117;1006.18;;;;
2019/07/02 01:17:55;;;;;;;4.2;1.4;;;;;;;33.92;25.23828;1006.21;;;;
2019/07/02 01:21:07;;;;;;;3;1.5;;;;;;;33.92;25.18848;1006.105;;;;
2019/07/02 01:24:18;;;;;;;4.7;1.8;;;;;;;33.92;25.15137;1006.122;;;;
2019/07/02 01:27:30;;;;;;;1.9;1.4;;;;;;;33.91;25.2002;1006.18;;;;
2019/07/02 01:30:42;;;;;;;4.3;1.5;;;;;;;33.91;25.21191;1006.21;;;;
2019/07/02 01:34:04;;;;;;;2.8;1.4;;;;;;;33.9;25.1875;1006.144;;;;
2019/07/02 01:37:16;;;;;;;3.1;1.4;;;;;;;33.9;25.19922;1006.138;;;;
2019/07/02 01:40:27;;;;;;;3.3;1.4;;;;;;;33.9;25.22461;1006.189;;;;
2019/07/02 01:43:39;;;;;;;3.3;1.5;;;;;;;33.89;25.19922;1006.218;;;;
2019/07/02 01:46:50;;;;;;;4.9;1.5;;;;;;;33.88;25.22266;1006.261;;;;
2019/07/02 01:50:02;;;;;;;2.7;1.2;;;;;;;33.87;25.16113;1006.322;;;;
2019/07/02 01:53:14;;;;;;;2.3;1.1;;;;;;;33.86;25.20996;1006.359;;;;
2019/07/02 01:56:25;;;;;;;3.5;1.4;;;;;;;33.86;25.19727;1006.44;;;;
2019/07/02 01:59:37;;;;;;;3.7;1.8;;;;;;;33.86;25.19727;1006.468;;;;
2019/07/02 02:02:49;;;;;;;2.7;1.3;;;;;;;33.86;25.22168;1006.482;;;;
2019/07/02 02:06:00;;;;;;;4.2;1.7;;;;;;;33.85;25.19629;1006.494;;;;
2019/07/02 02:09:12;;;;;;;3.2;1.4;;;;;;;33.85;25.22168;1006.554;;;;
2019/07/02 02:12:24;;;;;;;3.3;1.3;;;;;;;33.83;25.18359;1006.504;;;;
2019/07/02 02:15:35;;;;;;;3.1;1.3;;;;;;;33.83;25.25684;1006.602;;;;
2019/07/02 02:18:47;;;;;;;3.3;1.5;;;;;;;33.82;25.14551;1006.672;;;;
2019/07/02 02:21:59;;;;;;;3.1;1.5;;;;;;;33.81;25.14551;1006.732;;;;
2019/07/02 02:26:44;;;;;;;3.7;1.4;;;;;;;33.78;25.19336;1006.81;;;;
2019/07/02 02:29:56;;;;;;;2.8;1.4;;;;;;;33.78;25.18066;1006.79;;;;
2019/07/02 02:33:07;;;;;;;2.3;1.4;;;;;;;33.76;25.16699;1006.797;;;;
2019/07/02 02:36:19;;;;;;;2.6;1.5;;;;;;;33.75;25.17871;1006.801;;;;
2019/07/02 02:39:31;;;;;;;2.2;1.2;;;;;;;33.74;25.14063;1006.762;;;;
2019/07/02 02:42:43;;;;;;;3.8;1.4;;;;;;;33.71;25.12695;1006.737;;;;
2019/07/02 02:45:55;;;;;;;2.7;1.3;;;;;;;33.7;25.06445;1006.763;;;;
2019/07/02 02:49:06;;;;;;;4.1;1.5;;;;;;;33.7;25.15137;1006.69;;;;
2019/07/02 02:52:18;;;;;;;3.2;1.7;;;;;;;33.69;25.12695;1006.722;;;;
2019/07/02 02:55:29;;;;;;;5.3;1.5;;;;;;;33.71;25.12695;1006.693;;;;
2019/07/02 02:58:41;;;;;;;3.6;1.4;;;;;;;33.69;25.10156;1006.735;;;;
2019/07/02 03:01:53;;;;;;;2.4;1.3;;;;;;;33.69;25.13867;1006.74;;;;
2019/07/02 03:05:05;;;;;;;6.8;1.6;;;;;;;33.69;25.05176;1006.713;;;;
2019/07/02 03:08:16;;;;;;;3.6;1.6;;;;;;;33.68;25.06348;1006.743;;;;
2019/07/02 03:11:28;;;;;;;3.4;1.6;;;;;;;33.68;25.05176;1006.772;;;;
2019/07/02 03:14:40;;;;;;;4.2;1.7;;;;;;;33.67;25.17383;1006.889;;;;
2019/07/02 03:17:52;;;;;;;3.1;1.5;;;;;;;33.68;25.07617;1006.989;;;;
2019/07/02 03:21:05;;;;;;;3.3;1.3;;;;;;;33.69;25.07715;1006.978;;;;
2019/07/02 03:24:16;;;;;;;3.7;1.5;;;;;;;33.7;25.02734;1007.006;;;;
2019/07/02 03:27:28;;;;;;;3.4;1.6;;;;;;;33.71;24.97852;1007.066;;;;
2019/07/02 03:30:40;;;;;;;3.3;1.5;;;;;;;33.72;24.93066;1007.092;;;;
2019/07/02 03:33:51;;;;;;;2.6;1.3;;;;;;;33.73;24.84473;1007.092;;;;
2019/07/02 03:37:03;;;;;;;3.4;1.5;;;;;;;33.73;24.77051;1007.135;;;;
2019/07/02 03:40:15;;;;;;;3;1.4;;;;;;;33.74;24.70898;1007.14;;;;
2019/07/02 03:43:26;;;;;;;5.4;1.6;;;;;;;33.76;24.62402;1007.175;;;;
2019/07/02 03:46:37;;;;;;;3.4;1.6;;;;;;;33.76;24.59863;1007.18;;;;
2019/07/02 03:49:49;;;;;;;3.8;1.5;;;;;;;33.77;24.52539;1007.246;;;;
2019/07/02 03:53:01;;;;;;;2.7;1.7;;;;;;;33.77;24.50098;1007.259;;;;
2019/07/02 03:56:12;;;;;;;6.1;1.5;;;;;;;33.77;24.50098;1007.236;;;;
2019/07/02 03:59:24;;;;;;;4.3;1.3;;;;;;;33.76;24.47559;1007.192;;;;
2019/07/02 04:02:36;;;;;;;3.5;1.6;;;;;;;33.76;24.46289;1007.173;;;;
2019/07/02 04:05:47;;;;;;;5.2;1.9;;;;;;;33.76;24.48828;1007.208;;;;
2019/07/02 04:08:59;;;;;;;5.2;1.7;;;;;;;33.76;24.47559;1007.21;;;;
2019/07/02 04:12:11;;;;;;;3.9;1.4;;;;;;;33.74;24.7832;1007.209;;;;
2019/07/02 04:15:23;;;;;;;6;1.8;;;;;;;33.74;24.57324;1007.199;;;;
2019/07/02 04:18:35;;;;;;;3.7;1.7;;;;;;;33.75;24.4873;1007.19;;;;
2019/07/02 04:21:46;;;;;;;3.4;1.7;;;;;;;33.75;24.31445;1007.213;;;;
2019/07/02 04:24:58;;;;;;;7.1;1.6;;;;;;;33.72;24.28809;1007.18;;;;
2019/07/02 04:28:10;;;;;;;2.5;1.5;;;;;;;33.69;24.37305;1007.131;;;;
2019/07/02 04:31:22;;;;;;;3.6;1.6;;;;;;;33.66;24.38379;1007.167;;;;
2019/07/02 04:34:39;;;;;;;5.4;1.7;;;;;;;33.65;24.3584;1007.153;;;;
2019/07/02 04:37:51;;;;;;;6.2;1.7;;;;;;;33.62;24.34473;1007.155;;;;
2019/07/02 04:47:43;;;;;;;5.2;1.7;;;;;;;33.62;24.27051;1007.202;;;;
2019/07/02 04:50:55;;;;;;;4.3;1.6;;;;;;;33.61;24.01074;1007.247;;;;
2019/07/02 04:54:07;;;;;;;3.4;1.6;;;;;;;33.61;23.92383;1007.302;;;;
2019/07/02 04:57:18;;;;;;;4.5;1.7;;;;;;;33.63;23.8877;1007.339;;;;
2019/07/02 05:00:30;;;;;;;4.4;1.6;;;;;;;33.63;23.82715;1007.363;;;;
2019/07/02 05:03:42;;;;;;;5;1.5;;;;;;;33.65;23.79102;1007.388;;;;
2019/07/02 05:06:53;;;;;;;5;1.9;;;;;;;33.67;23.74219;1007.427;;;;
2019/07/02 05:10:05;;;;;;;6.8;1.7;;;;;;;33.68;23.75488;1007.433;;;;
2019/07/02 05:13:16;;;;;;;4.3;1.8;;;;;;;33.7;23.66992;1007.449;;;;
2019/07/02 05:16:28;;;;;;;4.3;1.8;;;;;;;33.73;23.63477;1007.514;;;;
2019/07/02 05:19:40;;;;;;;5;1.8;;;;;;;33.76;23.56152;1007.569;;;;
2019/07/02 05:22:52;;;;;;;6;1.7;;;;;;;33.79;23.46484;1007.62;;;;
2019/07/02 05:26:03;;;;;;;3.3;1.5;;;;;;;33.81;23.45313;1007.644;;;;
2019/07/02 05:29:15;;;;;;;5.3;1.9;;;;;;;33.81;23.41602;1007.645;;;;
2019/07/02 05:32:26;;;;;;;4.9;1.7;;;;;;;33.81;23.4043;1007.7;;;;
2019/07/02 05:35:38;;;;;;;7.2;1.7;;;;;;;33.83;23.3916;1007.635;;;;
2019/07/02 05:38:50;;;;;;;5.1;1.8;;;;;;;33.83;23.41797;1007.611;;;;
2019/07/02 05:42:01;;;;;;;3.6;1.8;;;;;;;33.86;23.45605;1007.636;;;;
2019/07/02 05:45:13;;;;;;;6.2;1.9;;;;;;;33.86;23.44336;1007.598;;;;
2019/07/02 05:48:25;;;;;;;6.2;1.6;;;;;;;33.87;23.41895;1007.602;;;;
2019/07/02 05:51:37;;;;;;;6.7;1.9;;;;;;;33.91;23.38379;1007.634;;;;
2019/07/02 05:54:48;;;;;;;4.9;1.6;;;;;;;33.94;23.39844;1007.603;;;;
2019/07/02 05:58:00;;;;;;;7.6;1.8;;;;;;;33.94;23.37402;1007.601;;;;
2019/07/02 06:01:12;;;;;;;7.4;1.8;;;;;;;33.94;23.38574;1007.58;;;;
2019/07/02 06:04:23;;;;;;;5.5;1.8;;;;;;;33.94;23.39844;1007.547;;;;
2019/07/02 06:07:35;;;;;;;4.8;1.7;;;;;;;33.95;23.3125;1007.554;;;;
2019/07/02 06:10:47;;;;;;;6.5;2;;;;;;;33.95;23.2998;1007.583;;;;
2019/07/02 06:13:59;;;;;;;6.8;1.8;;;;;;;33.95;23.33691;1007.576;;;;
2019/07/02 06:17:10;;;;;;;6.6;2.1;;;;;;;33.95;23.2627;1007.603;;;;
2019/07/02 06:20:22;;;;;;;6.2;1.7;;;;;;;33.96;23.28809;1007.6;;;;
2019/07/02 06:23:34;;;;;;;8.9;2;;;;;;;33.97;23.27539;1007.634;;;;
2019/07/02 06:26:46;;;;;;;6.2;2;;;;;;;33.95;23.27539;1007.646;;;;
2019/07/02 06:29:57;;;;;;;7.3;2.1;;;;;;;33.93;23.28613;1007.632;;;;
2019/07/02 06:33:09;;;;;;;8.6;2.1;;;;;;;33.93;23.26172;1007.667;;;;
2019/07/02 06:36:20;;;;;;;5.8;1.7;;;;;;;33.93;23.27344;1007.701;;;;
2019/07/02 06:39:32;;;;;;;6.8;2;;;;;;;33.89;23.27246;1007.653;;;;
2019/07/02 06:42:44;;;;;;;5.5;1.9;;;;;;;33.88;23.14746;1007.694;;;;
2019/07/02 06:45:55;;;;;;;6.4;2;;;;;;;33.87;23.20898;1007.704;;;;
2019/07/02 06:49:07;;;;;;;5.4;2;;;;;;;33.88;23.08594;1007.717;;;;
2019/07/02 06:52:19;;;;;;;8.2;2.4;;;;;;;33.86;23.04785;1007.743;;;;
2019/07/02 06:55:31;;;;;;;7.3;1.8;;;;;;;33.84;22.97266;1007.805;;;;
2019/07/02 06:58:42;;;;;;;7.4;2;;;;;;;33.94;23.01465;1007.84;;;;
2019/07/02 07:01:54;;;;;;;6.5;1.9;;;;;;;32.79;24.49707;1007.799;;;;
2019/07/02 07:05:06;;;;;;;6.6;1.7;;;;;;;32.26;25.04785;1007.712;;;;
2019/07/02 07:08:19;;;;;;;8.9;1.9;;;;;;;32.23;24.88574;1007.74;;;;
2019/07/02 07:11:31;;;;;;;8.6;2;;;;;;;32.15;24.7959;1007.718;;;;
2019/07/02 07:14:43;;;;;;;11.1;2.2;;;;;;;32.14;24.75781;1007.725;;;;
2019/07/02 07:17:55;;;;;;;8;2;;;;;;;31.99;25.17969;1007.69;;;;
2019/07/02 07:21:07;;;;;;;6.6;1.8;;;;;;;32.06;25.06055;1007.655;;;;
2019/07/02 07:24:20;;;;;;;6.4;2;;;;;;;31.99;24.78613;1007.703;;;;
2019/07/02 07:27:32;;;;;;;7.8;2.4;;;;;;;31.9;24.8916;1007.677;;;;
2019/07/02 07:30:44;;;;;;;7.8;2;;;;;;;31.83;25.09668;1007.661;;;;
2019/07/02 07:33:56;;;;;;;5;2.1;;;;;;;31.79;25.20605;1007.707;;;;
2019/07/02 07:37:08;;;;;;;6;1.6;;;;;;;31.66;25.4082;1007.672;;;;
2019/07/02 07:40:19;;;;;;;9.3;2.2;;;;;;;31.63;25.60254;1007.589;;;;
2019/07/02 07:43:31;;;;;;;7.6;2.1;;;;;;;31.59;25.5752;1007.615;;;;
2019/07/02 07:46:44;;;;;;;7.6;2;;;;;;;31.69;25.44629;1007.653;;;;
2019/07/02 07:49:56;;;;;;;6.4;1.9;;;;;;;31.83;25.31934;1007.705;;;;
2019/07/02 07:53:08;;;;;;;4.9;1.8;;;;;;;31.96;25.25195;1007.688;;;;
2019/07/02 07:56:20;;;;;;;10.4;2.1;;;;;;;32.02;24.86133;1007.568;;;;
2019/07/02 07:59:32;;;;;;;9.1;2.1;;;;;;;31.9;24.85449;1007.604;;;;
2019/07/02 08:02:44;;;;;;;7.5;1.8;;;;;;;31.73;25.01855;1007.535;;;;
2019/07/02 08:05:55;;;;;;;5.9;1.9;;;;;;;31.5;25.49707;1007.47;;;;
2019/07/02 08:09:07;;;;;;;5.4;1.9;;;;;;;31.63;25.5166;1007.434;;;;
2019/07/02 08:12:19;;;;;;;7;1.9;;;;;;;31.88;25.29688;1007.446;;;;
2019/07/02 08:15:31;;;;;;;10.8;2.6;;;;;;;31.88;25.34668;1007.456;;;;
2019/07/02 08:18:42;;;;;;;8.8;2.1;;;;;;;32.12;24.9043;1007.424;;;;
2019/07/02 08:21:54;;;;;;;9.7;2.6;;;;;;;31.82;25.23242;1007.395;;;;
2019/07/02 08:25:07;;;;;;;13.4;2.5;;;;;;;31.89;25.07617;1007.39;;;;
2019/07/02 08:28:20;;;;;;;8;1.9;;;;;;;31.87;25.11133;1007.363;;;;
2019/07/02 08:31:32;;;;;;;8.1;2.4;;;;;;;31.95;25.04199;1007.381;;;;
2019/07/02 08:34:44;;;;;;;6.5;1.8;;;;;;;32.04;25.01074;1007.305;;;;
2019/07/02 08:37:55;;;;;;;8.6;2.2;;;;;;;32.05;25.06055;1007.375;;;;
2019/07/02 08:41:08;;;;;;;5.9;2;;;;;;;31.94;25.3623;1007.348;;;;
2019/07/02 08:44:19;;;;;;;8.2;2.1;;;;;;;32.32;24.73047;1007.288;;;;
2019/07/02 08:47:31;;;;;;;4.5;1.6;;;;;;;32.36;24.80664;1007.295;;;;
2019/07/02 08:50:43;;;;;;;5.6;1.8;;;;;;;32.31;24.97656;1007.279;;;;
2019/07/02 08:53:55;;;;;;;6.3;1.8;;;;;;;32.36;24.94238;1007.344;;;;
2019/07/02 08:57:07;;;;;;;5.9;2;;;;;;;32.66;24.50293;1007.368;;;;
2019/07/02 09:00:19;;;;;;;5.6;1.9;;;;;;;32.35;24.69531;1007.349;;;;
2019/07/02 09:03:43;;;;;;;8.8;2;;;;;;;32.3;24.72949;1007.323;;;;
2019/07/02 09:06:55;;;;;;;8.9;2.2;;;;;;;31.9;25.26074;1007.274;;;;
2019/07/02 09:10:07;;;;;;;6.7;1.8;;;;;;;32.35;24.74414;1007.251;;;;
2019/07/02 09:13:20;;;;;;;10.3;2.5;;;;;;;32.22;24.7002;1007.211;;;;
2019/07/02 09:16:33;;;;;;;5.3;1.9;;;;;;;32.1;24.87793;1007.254;;;;
2019/07/02 09:19:46;;;;;;;6.1;1.9;;;;;;;32.25;24.67773;1007.267;;;;
2019/07/02 09:22:58;;;;;;;5.8;1.9;;;;;;;32.28;24.75293;1007.263;;;;
2019/07/02 09:26:10;;;;;;;6.5;1.7;;;;;;;31.99;25.2168;1007.263;;;;
2019/07/02 09:29:23;;;;;;;7.1;2;;;;;;;31.91;25.16309;1007.232;;;;
2019/07/02 09:32:35;;;;;;;6.7;2.1;;;;;;;32.07;25.07422;1007.19;;;;
2019/07/02 09:35:47;;;;;;;9;2.2;;;;;;;32.06;24.74023;1007.175;;;;
2019/07/02 09:39:00;;;;;;;5;1.7;;;;;;;32.14;24.59766;1007.192;;;;
2019/07/02 09:42:14;;;;;;;10;2.1;;;;;;;32.19;24.6123;1007.204;;;;
2019/07/02 09:45:26;;;;;;;5.2;1.9;;;;;;;32.13;24.57227;1007.182;;;;
2019/07/02 09:48:39;;;;;;;6.9;2.1;;;;;;;31.99;24.83594;1007.143;;;;
2019/07/02 09:51:51;;;;;;;6.7;2.1;;;;;;;32;24.89746;1007.154;;;;
2019/07/02 09:55:03;;;;;;;6.1;2;;;;;;;32.03;24.875;1007.157;;;;
2019/07/02 09:58:16;;;;;;;7.9;2.2;;;;;;;32.25;24.75098;1007.14;;;;
2019/07/02 10:01:28;;;;;;;4.1;1.6;;;;;;;32.24;24.92285;1007.137;;;;
2019/07/02 10:04:41;;;;;;;5.4;1.6;;;;;;;31.63;25.92188;1007.144;;;;
2019/07/02 10:07:53;;;;;;;4.9;2.1;;;;;;;31.93;25.59473;1007.089;;;;
2019/07/02 10:11:05;;;;;;;4.3;1.9;;;;;;;32.15;25.39746;1007.071;;;;
2019/07/02 10:14:17;;;;;;;6.2;1.9;;;;;;;31.87;25.85059;1007.018;;;;
2019/07/02 10:17:30;;;;;;;8.1;2.1;;;;;;;31.96;25.74414;1007.046;;;;
2019/07/02 10:20:42;;;;;;;5.7;1.9;;;;;;;32.06;25.56543;1006.995;;;;
2019/07/02 10:23:55;;;;;;;9.5;2.1;;;;;;;32.25;25.37891;1007.014;;;;
2019/07/02 10:27:07;;;;;;;5.6;1.8;;;;;;;32.4;25.21484;1006.89;;;;
2019/07/02 10:30:19;;;;;;;13.2;2.1;;;;;;;32.36;25.18848;1006.964;;;;
2019/07/02 10:33:32;;;;;;;8.5;2.1;;;;;;;32.31;25.20996;1006.934;;;;
2019/07/02 10:36:44;;;;;;;5;1.9;;;;;;;32.41;25.06836;1006.969;;;;
2019/07/02 10:39:56;;;;;;;5.5;1.7;;;;;;;32.02;25.68555;1006.948;;;;
2019/07/02 10:43:09;;;;;;;4.4;1.8;;;;;;;32.25;25.25586;1006.956;;;;
2019/07/02 10:46:22;;;;;;;8.9;2.1;;;;;;;32.21;25.24219;1006.976;;;;
2019/07/02 10:49:34;;;;;;;9.9;2;;;;;;;31.74;26.00293;1006.947;;;;
2019/07/02 10:52:47;;;;;;;9.6;2.4;;;;;;;31.92;25.59473;1006.95;;;;
2019/07/02 10:56:00;;;;;;;5.7;2;;;;;;;31.61;26.17969;1007.029;;;;
2019/07/02 10:59:13;;;;;;;9.7;2.2;;;;;;;31.72;26.5791;1006.992;;;;
2019/07/02 11:02:25;;;;;;;8.6;2;;;;;;;31.66;26.75977;1007.022;;;;
2019/07/02 11:05:37;;;;;;;6.1;2;;;;;;;31.83;26.65918;1006.939;;;;
2019/07/02 11:08:50;;;;;;;8.6;2.3;;;;;;;31.62;26.87988;1006.993;;;;
2019/07/02 11:12:02;;;;;;;8.6;2.2;;;;;;;31.92;26.55371;1006.939;;;;
2019/07/02 11:15:14;;;;;;;6.9;2.3;;;;;;;31.94;26.60352;1006.914;;;;
2019/07/02 11:18:27;;;;;;;6.8;2.2;;;;;;;31.77;26.4834;1006.826;;;;
2019/07/02 11:21:40;;;;;;;8.7;2.5;;;;;;;31.86;26.31641;1006.845;;;;
2019/07/02 11:24:52;;;;;;;10.1;2.4;;;;;;;31.77;26.49609;1006.825;;;;
2019/07/02 11:28:04;;;;;;;11.8;2.4;;;;;;;31.71;26.5791;1006.823;;;;
2019/07/02 11:31:17;;;;;;;7.4;1.9;;;;;;;31.68;26.50195;1006.87;;;;
2019/07/02 11:34:30;;;;;;;7.2;2.3;;;;;;;31.44;26.89453;1006.799;;;;
2019/07/02 11:37:43;;;;;;;7.8;2.1;;;;;;;31.64;26.36523;1006.812;;;;
2019/07/02 11:40:55;;;;;;;6.6;1.9;;;;;;;32.01;25.85742;1006.82;;;;
2019/07/02 11:44:07;;;;;;;7.1;2;;;;;;;32.11;25.60547;1006.814;;;;
2019/07/02 11:47:19;;;;;;;7;2;;;;;;;31.86;26.03418;1006.768;;;;
2019/07/02 11:50:31;;;;;;;4.2;1.8;;;;;;;31.44;26.62402;1006.749;;;;
2019/07/02 11:53:44;;;;;;;5.9;1.9;;;;;;;31.48;26.33105;1006.743;;;;
2019/07/02 11:56:56;;;;;;;4.7;1.7;;;;;;;31.71;26.02539;1006.669;;;;
2019/07/02 12:00:09;;;;;;;10;2.2;;;;;;;31.76;26.04004;1006.712;;;;
2019/07/02 12:03:21;;;;;;;6.6;2.1;;;;;;;31.77;25.81934;1006.714;;;;
2019/07/02 12:06:33;;;;;;;9.1;2;;;;;;;31.79;25.87012;1006.686;;;;
2019/07/02 12:09:44;;;;;;;8.4;2;;;;;;;31.86;25.63965;1006.64;;;;
2019/07/02 12:12:57;;;;;;;4.8;1.8;;;;;;;32;25.35254;1006.63;;;;
2019/07/02 12:16:09;;;;;;;5.6;2;;;;;;;32.06;25.25684;1006.607;;;;
2019/07/02 12:19:22;;;;;;;5.3;1.8;;;;;;;31.68;25.58008;1006.619;;;;
2019/07/02 12:22:33;;;;;;;5.6;2;;;;;;;31.25;25.54395;1006.624;;;;
2019/07/02 12:25:45;;;;;;;6.7;1.9;;;;;;;31.46;25.59277;1006.568;;;;
2019/07/02 12:28:58;;;;;;;5.8;1.8;;;;;;;31.44;25.50586;1006.5;;;;
2019/07/02 12:32:11;;;;;;;5.7;1.9;;;;;;;31.45;25.44531;1006.485;;;;
2019/07/02 12:35:23;;;;;;;5.7;1.8;;;;;;;31.36;25.55078;1006.464;;;;
2019/07/02 12:38:36;;;;;;;10.4;1.8;;;;;;;31.76;25.00781;1006.499;;;;
2019/07/02 12:41:11;;;;;;;7.1;1.8;;;;;;;31.88;24.81738;1006.497;;;;
2019/07/02 12:43:37;;;;;;;5.6;1.6;;;;;;;32;24.31934;1006.484;;;;
2019/07/02 12:46:03;;;;;;;7.4;1.6;;;;;;;31.98;24.46582;1006.452;;;;
2019/07/02 12:49:39;;;;;;;6.6;1.8;;;;;;;32.11;24.57129;1006.422;;;;
2019/07/02 12:52:04;;;;;;;5.8;1.7;;;;;;;32.3;24.36035;1006.396;;;;
2019/07/02 12:54:40;;;;;;;6.1;1.5;;;;;;;31.83;24.64258;1006.429;;;;
2019/07/02 12:57:05;;;;;;;6.3;1.5;;;;;;;31.57;24.77637;1006.441;;;;
2019/07/02 13:00:24;;;;;;;5.2;1.6;;;;;;;31.94;24.41504;1006.435;;;;
2019/07/02 13:02:50;;;;;;;7.6;1.5;;;;;;;32.14;24.19141;1006.401;;;;
2019/07/02 13:05:15;;;;;;;7.7;1.5;;;;;;;32.23;23.88867;1006.379;;;;
2019/07/02 13:07:41;;;;;;;7.2;1.7;;;;;;;32.22;23.6416;1006.362;;;;
2019/07/02 13:10:06;;;;;;;5.6;1.5;;;;;;;31.79;24.12402;1006.412;;;;
2019/07/02 13:12:31;;;;;;;8.1;1.5;;;;;;;32.04;23.98926;1006.378;;;;
2019/07/02 13:13:05;;;;;;;3.4;1.2;;;;;;;32.15;23.87207;1006.35;;;;
2019/07/02 13:15:30;;;;;;;3.8;1.4;;;;;;;32.31;23.56055;1006.327;;;;
2019/07/02 13:17:55;;;;;;;5.9;1.6;;;;;;;32.13;23.58789;1006.371;;;;
2019/07/02 13:20:22;;;;;;;10.7;1.8;;;;;;;32.34;23.18066;1006.279;;;;
2019/07/02 13:22:47;;;;;;;7;1.7;;;;;;;32.38;22.96094;1006.266;;;;
2019/07/02 13:25:11;;;;;;;4.4;1.6;;;;;;;32.25;23.00293;1006.29;;;;
2019/07/02 13:25:44;;;;;;;7.3;1.6;;;;;;;32.33;22.95801;1006.365;;;;
2019/07/02 13:28:09;;;;;;;5.6;1.7;;;;;;;32.17;22.80273;1006.226;;;;
2019/07/02 13:28:18;;;;;;;5.2;1.7;;;;;;;32.2;22.79102;1006.234;;;;
2019/07/02 13:30:44;;;;;;;3.9;1.5;;;;;;;32.26;22.90625;1006.255;;;;
2019/07/02 13:33:15;;;;;;;4.6;1.4;;;;;;;32;23.05273;1006.21;;;;
2019/07/02 13:35:41;;;;;;;4.8;1.4;;;;;;;31.81;23.15332;1006.291;;;;
2019/07/02 13:38:07;;;;;;;4.7;1.6;;;;;;;32.07;22.77344;1006.206;;;;
2019/07/02 13:38:25;;;;;;;5.6;2;;;;;;;32.16;22.76465;1006.209;;;;
2019/07/02 13:40:50;;;;;;;4.5;1.5;;;;;;;32.39;22.28418;1006.175;;;;
2019/07/02 13:43:16;;;;;;;5.8;1.6;;;;;;;32.43;21.6084;1006.114;;;;
2019/07/02 13:43:30;;;;;;;6.8;1.5;;;;;;;32.42;21.69434;1006.12;;;;
2019/07/02 13:45:56;;;;;;;6.7;1.5;;;;;;;32.36;21.59375;1006.094;;;;
2019/07/02 13:48:21;;;;;;;7.5;1.5;;;;;;;32.27;21.62598;1006.055;;;;
2019/07/02 13:50:47;;;;;;;2.9;1.4;;;;;;;32.18;21.58496;1006.07;;;;
2019/07/02 13:53:12;;;;;;;5.1;1.4;;;;;;;32.25;21.48926;1006.019;;;;
2019/07/02 13:55:38;;;;;;;5.5;1.5;;;;;;;32.27;21.60156;1006;;;;
2019/07/02 13:56:09;;;;;;;4.8;1.7;;;;;;;32.26;21.71191;1006.03;;;;
2019/07/02 13:58:34;;;;;;;5.9;1.4;;;;;;;32.24;21.94531;1006.108;;;;
2019/07/02 14:01:53;;;;;;;3.7;1.3;;;;;;;32.2;21.88086;1006.073;;;;
2019/07/02 14:05:12;;;;;;;4.9;1.6;;;;;;;32.36;21.85156;1005.973;;;;
2019/07/02 14:08:31;;;;;;;4.4;1.4;;;;;;;32.45;21.83105;1005.923;;;;
2019/07/02 14:11:15;;;;;;;6.1;1.6;;;;;;;32.43;21.81836;1005.966;;;;
2019/07/02 14:13:40;;;;;;;4.9;1.4;;;;;;;32.41;21.68164;1005.924;;;;
2019/07/02 14:16:06;;;;;;;5.3;1.4;;;;;;;32.35;21.65527;1005.885;;;;
2019/07/02 14:16:30;;;;;;;5.4;1.4;;;;;;;32.45;21.59668;1005.877;;;;
2019/07/02 14:18:55;;;;;;;4.5;1.4;;;;;;;32.46;21.40137;1005.875;;;;
2019/07/02 14:21:21;;;;;;;7.2;1.3;;;;;;;32.33;21.30859;1005.805;;;;
2019/07/02 14:23:46;;;;;;;4.7;1.4;;;;;;;32.54;21.08496;1005.783;;;;
2019/07/02 14:26:11;;;;;;;4.5;1.3;;;;;;;32.51;21.00977;1005.722;;;;
2019/07/02 14:28:36;;;;;;;5.8;1.5;;;;;;;32.44;21.06738;1005.654;;;;
2019/07/02 14:31:02;;;;;;;4.7;1.3;;;;;;;32.4;21.08984;1005.643;;;;
2019/07/02 14:33:27;;;;;;;4.4;1.3;;;;;;;32.3;21.24609;1005.715;;;;
2019/07/02 14:34:10;;;;;;;7.9;1.7;;;;;;;32.24;21.37891;1005.722;;;;
2019/07/02 14:36:36;;;;;;;4.6;1.3;;;;;;;32.3;21.27051;1005.665;;;;
2019/07/02 14:39:01;;;;;;;4.9;1.3;;;;;;;32.32;21.30859;1005.726;;;;
2019/07/02 14:41:27;;;;;;;8.8;1.4;;;;;;;32.03;21.71289;1005.681;;;;
2019/07/02 14:43:52;;;;;;;3.6;1.1;;;;;;;32.05;21.70215;1005.629;;;;
2019/07/02 14:47:11;;;;;;;5.3;1.5;;;;;;;32.22;21.47559;1005.562;;;;
2019/07/02 14:49:36;;;;;;;3.8;1.2;;;;;;;32.24;21.13281;1005.577;;;;
2019/07/02 14:52:02;;;;;;;3.9;1.3;;;;;;;32.19;21.26563;1005.583;;;;
2019/07/02 14:54:27;;;;;;;3.9;1.2;;;;;;;32.32;21.07422;1005.555;;;;
2019/07/02 14:56:53;;;;;;;5.5;1.4;;;;;;;32.25;21.04688;1005.586;;;;
2019/07/02 14:59:18;;;;;;;3.2;1.3;;;;;;;32.27;20.88672;1005.557;;;;
2019/07/02 15:01:43;;;;;;;4.5;1.4;;;;;;;32.37;20.46094;1005.513;;;;
2019/07/02 15:04:09;;;;;;;6;1.4;;;;;;;32.28;20.125;1005.497;;;;
2019/07/02 15:07:29;;;;;;;2.5;1.2;;;;;;;32.32;20.13867;1005.48;;;;
2019/07/02 15:10:48;;;;;;;4.5;1.3;;;;;;;32.36;20.43652;1005.537;;;;
2019/07/02 15:14:06;;;;;;;5.9;1.3;;;;;;;32.36;20.6084;1005.557;;;;
2019/07/02 15:16:32;;;;;;;2.3;1.1;;;;;;;32.28;20.39551;1005.494;;;;
2019/07/02 15:19:50;;;;;;;4.6;1.4;;;;;;;32.05;20.32422;1005.482;;;;
2019/07/02 15:22:36;;;;;;;4.4;1.2;;;;;;;32.1;20.28906;1005.399;;;;
2019/07/02 15:26:08;;;;;;;5;1.4;;;;;;;32.18;20.47754;1005.375;;;;
2019/07/02 15:28:34;;;;;;;5;1.4;;;;;;;32.22;20.63867;1005.365;;;;
2019/07/02 15:30:59;;;;;;;4.3;1.3;;;;;;;32.3;20.56836;1005.331;;;;
2019/07/02 15:34:19;;;;;;;7.2;1.2;;;;;;;32.31;20.75391;1005.316;;;;
2019/07/02 15:34:51;;;;;;;3.1;1.3;;;;;;;32.31;20.77832;1005.291;;;;
2019/07/02 15:37:14;;;;;;;3.6;1.2;;;;;;;32.33;20.70605;1005.303;;;;
2019/07/02 15:39:40;;;;;;;5.6;1.6;;;;;;;32.18;20.75977;1005.281;;;;
2019/07/02 15:42:05;;;;;;;3.9;1.3;;;;;;;32.27;20.64063;1005.311;;;;
2019/07/02 15:44:31;;;;;;;3.1;1.3;;;;;;;32.32;20.37305;1005.252;;;;
2019/07/02 15:46:56;;;;;;;2.6;1.1;;;;;;;32.35;20.25098;1005.215;;;;
2019/07/02 15:49:21;;;;;;;4.4;1.4;;;;;;;32.29;20.55664;1005.251;;;;
2019/07/02 15:51:47;;;;;;;5.8;1.3;;;;;;;32.28;20.53027;1005.207;;;;
2019/07/02 15:55:59;;;;;;;2.7;1.1;;;;;;;32.27;20.44434;1005.116;;;;
2019/07/02 15:58:28;;;;;;;4.8;1.2;;;;;;;32.29;19.99023;1005.094;;;;
2019/07/02 16:00:51;;;;;;;4.4;1.4;;;;;;;32.27;19.92773;1005.035;;;;
2019/07/02 16:03:17;;;;;;;3.7;1.3;;;;;;;32.24;19.82715;1005.074;;;;
2019/07/02 16:06:35;;;;;;;6.5;1.2;;;;;;;32.28;19.43555;1005.038;;;;
2019/07/02 16:09:00;;;;;;;4.2;1.2;;;;;;;32.29;19.58398;1005.072;;;;
2019/07/02 16:11:26;;;;;;;3.7;1.3;;;;;;;32.28;19.49707;1005.03;;;;
2019/07/02 16:13:51;;;;;;;7.2;1.2;;;;;;;32.28;19.20215;1005.033;;;;
2019/07/02 16:16:16;;;;;;;3.5;1.2;;;;;;;32.2;19.45703;1005.043;;;;
2019/07/02 16:18:42;;;;;;;4.8;1.3;;;;;;;32.22;19.64258;1005.042;;;;
2019/07/02 16:21:07;;;;;;;5.7;1.3;;;;;;;32.3;19.6084;1004.981;;;;
2019/07/02 16:23:32;;;;;;;5.5;1.4;;;;;;;32.36;19.64844;1004.966;;;;
2019/07/02 16:25:58;;;;;;;3.2;1.2;;;;;;;32.44;19.65137;1005.015;;;;
2019/07/02 16:28:23;;;;;;;6.2;1.3;;;;;;;32.49;19.70313;1005.061;;;;
2019/07/02 16:31:42;;;;;;;5.4;1.5;;;;;;;32.55;19.68164;1005.04;;;;
2019/07/02 16:34:08;;;;;;;3.7;1.2;;;;;;;32.65;19.57422;1004.984;;;;
2019/07/02 16:36:33;;;;;;;5.3;1.1;;;;;;;32.64;19.64844;1004.996;;;;
2019/07/02 16:38:59;;;;;;;1.9;1.1;;;;;;;32.69;19.6748;1004.924;;;;
2019/07/02 16:41:24;;;;;;;2.9;1.2;;;;;;;32.73;19.68848;1004.932;;;;
2019/07/02 16:43:49;;;;;;;4.7;1.3;;;;;;;32.74;19.7627;1004.95;;;;
2019/07/02 16:46:15;;;;;;;3.3;1.3;;;;;;;32.77;19.80176;1004.962;;;;
2019/07/02 16:49:34;;;;;;;4.1;1.3;;;;;;;32.84;19.74316;1004.913;;;;
2019/07/02 16:51:59;;;;;;;2.4;1.2;;;;;;;32.86;19.69434;1004.962;;;;
2019/07/02 16:54:24;;;;;;;1.7;1.2;;;;;;;32.88;19.73242;1004.956;;;;
2019/07/02 16:56:50;;;;;;;2;1.2;;;;;;;32.9;19.7207;1004.932;;;;
2019/07/02 16:59:15;;;;;;;2.8;1;;;;;;;32.9;19.74609;1004.95;;;;
2019/07/02 17:01:43;;;;;;;3.5;1.2;;;;;;;32.88;19.81836;1004.85;;;;
2019/07/02 17:04:06;;;;;;;2;1.1;;;;;;;32.91;19.84473;1004.862;;;;
2019/07/02 17:06:31;;;;;;;4.7;1.4;;;;;;;32.94;19.78418;1004.859;;;;
2019/07/02 17:08:57;;;;;;;1.7;1;;;;;;;32.94;19.77148;1004.839;;;;
2019/07/02 17:11:23;;;;;;;3.2;1.1;;;;;;;32.88;19.83105;1004.809;;;;
2019/07/02 17:13:47;;;;;;;2.3;1.1;;;;;;;32.93;19.74707;1004.865;;;;
2019/07/02 17:16:13;;;;;;;3.8;1.3;;;;;;;32.96;19.68652;1004.801;;;;
2019/07/02 17:18:38;;;;;;;1.8;1.2;;;;;;;32.92;19.70996;1004.86;;;;
2019/07/02 17:21:03;;;;;;;3;1.1;;;;;;;32.97;19.625;1004.838;;;;
2019/07/02 17:23:28;;;;;;;4.2;1.2;;;;;;;32.98;19.61328;1004.845;;;;